createdAt,value
2018-03-16T00:01:32.519Z,66.80
2018-03-16T00:04:00.106Z,67.10
2018-03-16T00:06:28.426Z,67.30
2018-03-16T00:08:56.010Z,67.20
2018-03-16T00:11:23.570Z,67.10
2018-03-16T00:13:51.275Z,67.00
2018-03-16T00:16:18.938Z,66.80
2018-03-16T00:18:46.531Z,66.90
2018-03-16T00:21:14.098Z,67.10
2018-03-16T00:23:41.695Z,67.00
2018-03-16T00:26:10.023Z,66.80
2018-03-16T00:28:37.765Z,66.70
2018-03-16T00:31:05.338Z,66.70
2018-03-16T00:33:32.911Z,66.70
2018-03-16T00:36:00.474Z,66.70
2018-03-16T00:38:28.105Z,66.70
2018-03-16T00:40:55.666Z,66.40
2018-03-16T00:43:23.267Z,66.40
2018-03-16T00:45:50.822Z,66.50
2018-03-16T00:48:18.394Z,66.40
2018-03-16T00:50:45.986Z,66.70
2018-03-16T00:53:13.553Z,67.20
2018-03-16T00:55:41.180Z,66.90
2018-03-16T00:58:09.660Z,67.90
2018-03-16T01:00:38.059Z,68.40
2018-03-16T01:03:05.702Z,68.30
2018-03-16T01:05:34.225Z,67.40
2018-03-16T01:08:01.779Z,67.40
2018-03-16T01:10:29.401Z,68.70
2018-03-16T01:12:57.870Z,66.10
2018-03-16T01:15:26.247Z,66.10
2018-03-16T01:17:54.711Z,66.80
2018-03-16T01:20:22.395Z,66.00
2018-03-16T01:22:50.743Z,67.20
2018-03-16T01:25:18.298Z,67.10
2018-03-16T01:27:45.879Z,66.90
2018-03-16T01:30:14.204Z,67.40
2018-03-16T01:32:41.799Z,67.20
2018-03-16T01:35:09.372Z,67.30
2018-03-16T01:37:36.958Z,67.00
2018-03-16T01:40:04.532Z,67.20
2018-03-16T01:42:32.113Z,67.80
2018-03-16T01:44:59.667Z,67.90
2018-03-16T01:47:27.260Z,67.60
2018-03-16T01:49:54.814Z,68.00
2018-03-16T01:52:22.384Z,68.30
2018-03-16T01:54:50.730Z,68.30
2018-03-16T01:57:18.292Z,68.20
2018-03-16T01:59:45.902Z,68.40
2018-03-16T02:02:13.459Z,69.10
2018-03-16T02:04:41.222Z,70.00
2018-03-16T02:07:08.806Z,70.40
2018-03-16T02:09:36.382Z,70.80
2018-03-16T02:12:03.939Z,70.90
2018-03-16T02:14:31.577Z,69.90
2018-03-16T02:16:59.231Z,70.00
2018-03-16T02:19:26.803Z,70.10
2018-03-16T02:21:54.375Z,70.50
2018-03-16T02:24:21.974Z,71.10
2018-03-16T02:26:50.296Z,71.80
2018-03-16T02:29:17.949Z,71.80
2018-03-16T02:31:45.516Z,72.10
2018-03-16T02:34:13.110Z,72.00
2018-03-16T02:36:40.666Z,70.90
2018-03-16T02:39:08.243Z,70.90
2018-03-16T02:41:36.755Z,71.00
2018-03-16T02:44:04.330Z,70.60
2018-03-16T02:46:31.923Z,71.10
2018-03-16T02:48:59.491Z,70.80
2018-03-16T02:51:27.070Z,70.20
2018-03-16T02:53:55.448Z,70.30
2018-03-16T02:56:22.996Z,70.20
2018-03-16T02:58:51.432Z,70.30
2018-03-16T03:01:19.191Z,70.20
2018-03-16T03:03:46.783Z,69.80
2018-03-16T03:06:14.415Z,70.40
2018-03-16T03:08:42.031Z,69.70
2018-03-16T03:11:10.506Z,68.40
2018-03-16T03:13:39.026Z,67.60
2018-03-16T03:16:06.604Z,67.60
2018-03-16T03:18:34.195Z,67.20
2018-03-16T03:21:02.674Z,69.20
2018-03-16T03:23:31.002Z,70.00
2018-03-16T03:25:58.698Z,69.50
2018-03-16T03:28:26.246Z,69.70
2018-03-16T03:30:53.883Z,69.10
2018-03-16T03:33:21.434Z,68.80
2018-03-16T03:35:49.102Z,69.30
2018-03-16T03:38:16.656Z,69.90
2018-03-16T03:40:44.260Z,70.30
2018-03-16T03:43:11.911Z,69.70
2018-03-16T03:45:39.514Z,69.50
2018-03-16T03:48:07.065Z,68.80
2018-03-16T03:50:34.796Z,67.50
2018-03-16T03:53:02.365Z,67.10
2018-03-16T03:55:30.714Z,67.00
2018-03-16T03:57:58.287Z,66.90
2018-03-16T04:00:26.738Z,67.70
2018-03-16T04:02:54.291Z,67.70
2018-03-16T04:05:21.870Z,67.40
2018-03-16T04:07:49.426Z,67.00
2018-03-16T04:10:17.023Z,66.90
2018-03-16T04:12:45.344Z,67.00
2018-03-16T04:15:12.934Z,66.90
2018-03-16T04:17:40.522Z,67.30
2018-03-16T04:20:08.842Z,68.60
2018-03-16T04:22:36.438Z,68.60
2018-03-16T04:25:03.999Z,67.20
2018-03-16T04:27:31.578Z,67.00
2018-03-16T04:29:59.163Z,67.50
2018-03-16T04:32:26.847Z,67.00
2018-03-16T04:34:54.406Z,67.10
2018-03-16T04:37:21.966Z,67.00
2018-03-16T04:39:49.551Z,67.00
2018-03-16T04:42:17.910Z,67.00
2018-03-16T04:44:45.578Z,67.00
2018-03-16T04:47:13.167Z,67.00
2018-03-16T04:49:41.727Z,66.90
2018-03-16T04:52:09.322Z,66.80
2018-03-16T04:54:36.882Z,66.70
2018-03-16T04:57:04.460Z,66.80
2018-03-16T04:59:32.015Z,66.80
2018-03-16T05:01:59.592Z,66.40
2018-03-16T05:04:27.213Z,66.50
2018-03-16T05:06:54.813Z,66.60
2018-03-16T05:09:22.372Z,66.70
2018-03-16T05:11:50.067Z,66.80
2018-03-16T05:14:18.419Z,66.40
2018-03-16T05:16:46.055Z,66.40
2018-03-16T05:19:13.642Z,66.00
2018-03-16T05:21:41.199Z,66.20
2018-03-16T05:24:08.938Z,66.20
2018-03-16T05:26:36.502Z,66.00
2018-03-16T05:29:04.079Z,65.80
2018-03-16T05:31:33.328Z,65.50
2018-03-16T05:34:00.879Z,65.40
2018-03-16T05:36:28.544Z,65.70
2018-03-16T05:38:56.104Z,65.90
2018-03-16T05:41:23.792Z,65.70
2018-03-16T05:43:51.359Z,66.40
2018-03-16T05:46:18.943Z,66.00
2018-03-16T05:48:46.515Z,65.80
2018-03-16T05:51:14.843Z,67.20
2018-03-16T05:53:42.431Z,67.10
2018-03-16T05:56:10.001Z,67.50
2018-03-16T05:58:37.639Z,67.90
2018-03-16T06:01:05.198Z,68.00
2018-03-16T06:03:32.830Z,67.60
2018-03-16T06:06:00.387Z,68.30
2018-03-16T06:08:27.942Z,68.50
2018-03-16T06:10:55.588Z,68.00
2018-03-16T06:13:23.142Z,68.50
2018-03-16T06:15:50.734Z,68.10
2018-03-16T06:18:18.296Z,68.20
2018-03-16T06:20:45.846Z,68.00
2018-03-16T06:23:13.442Z,68.00
2018-03-16T06:25:41.026Z,67.20
2018-03-16T06:28:09.411Z,66.50
2018-03-16T06:30:37.069Z,66.40
2018-03-16T06:33:04.627Z,67.00
2018-03-16T06:35:32.354Z,67.30
2018-03-16T06:37:59.935Z,65.90
2018-03-16T06:40:28.443Z,64.20
2018-03-16T06:42:56.039Z,64.20
2018-03-16T06:45:23.594Z,63.40
2018-03-16T06:47:51.308Z,62.90
2018-03-16T06:50:18.903Z,62.40
2018-03-16T06:52:46.491Z,62.50
2018-03-16T06:55:14.082Z,62.30
2018-03-16T06:57:41.671Z,62.10
2018-03-16T07:00:09.230Z,62.00
2018-03-16T07:02:36.830Z,62.50
2018-03-16T07:05:04.414Z,62.70
2018-03-16T07:07:32.834Z,62.50
2018-03-16T07:10:01.375Z,62.50
2018-03-16T07:12:28.970Z,62.70
2018-03-16T07:14:56.648Z,63.10
2018-03-16T07:17:24.353Z,62.90
2018-03-16T07:19:52.689Z,63.30
2018-03-16T07:22:20.239Z,63.30
2018-03-16T07:24:47.915Z,63.00
2018-03-16T07:27:15.479Z,63.70
2018-03-16T07:29:43.255Z,63.30
2018-03-16T07:32:11.575Z,63.40
2018-03-16T07:34:39.151Z,63.20
2018-03-16T07:37:06.727Z,63.60
2018-03-16T07:39:34.306Z,63.40
2018-03-16T07:42:02.639Z,64.00
2018-03-16T07:44:30.214Z,63.90
2018-03-16T07:46:57.791Z,63.10
2018-03-16T07:49:25.503Z,63.60
2018-03-16T07:51:53.074Z,63.70
2018-03-16T07:54:20.666Z,63.60
2018-03-16T07:56:48.395Z,64.00
2018-03-16T07:59:16.007Z,64.00
2018-03-16T08:01:44.374Z,63.80
2018-03-16T08:04:12.041Z,63.60
2018-03-16T08:06:40.415Z,63.00
2018-03-16T08:09:08.761Z,63.40
2018-03-16T08:11:36.363Z,63.20
2018-03-16T08:14:04.748Z,63.50
2018-03-16T08:16:33.098Z,62.70
2018-03-16T08:19:00.674Z,62.70
2018-03-16T08:21:29.018Z,61.80
2018-03-16T08:23:56.701Z,61.80
2018-03-16T08:26:25.161Z,61.40
2018-03-16T08:28:52.748Z,61.60
2018-03-16T08:31:21.162Z,62.00
2018-03-16T08:33:48.774Z,61.90
2018-03-16T08:36:16.399Z,61.80
2018-03-16T08:38:44.035Z,61.30
2018-03-16T08:41:11.747Z,61.40
2018-03-16T08:43:39.311Z,61.00
2018-03-16T08:46:06.893Z,60.90
2018-03-16T08:48:34.467Z,61.10
2018-03-16T08:51:02.043Z,60.90
2018-03-16T08:53:29.610Z,60.90
2018-03-16T08:55:57.226Z,61.10
2018-03-16T08:58:25.616Z,59.50
2018-03-16T09:00:53.262Z,59.50
2018-03-16T09:03:21.612Z,59.20
2018-03-16T09:05:49.207Z,59.10
2018-03-16T09:08:16.819Z,59.00
2018-03-16T09:10:44.599Z,58.70
2018-03-16T09:13:12.363Z,58.20
2018-03-16T09:15:39.922Z,58.00
2018-03-16T09:18:07.528Z,58.40
2018-03-16T09:20:35.109Z,57.60
2018-03-16T09:23:02.671Z,58.10
2018-03-16T09:25:30.287Z,58.00
2018-03-16T09:27:57.966Z,58.20
2018-03-16T09:30:25.544Z,58.50
2018-03-16T09:32:53.123Z,58.10
2018-03-16T09:35:20.736Z,57.40
2018-03-16T09:37:48.294Z,57.10
2018-03-16T09:40:15.874Z,57.70
2018-03-16T09:42:43.443Z,57.70
2018-03-16T09:45:11.043Z,57.80
2018-03-16T09:47:39.462Z,57.70
2018-03-16T09:50:07.057Z,57.60
2018-03-16T09:52:34.630Z,58.00
2018-03-16T09:55:15.006Z,57.90
2018-03-16T09:57:43.337Z,59.30
2018-03-16T10:00:11.207Z,59.10
2018-03-16T10:02:38.781Z,58.70
2018-03-16T10:05:06.332Z,58.20
2018-03-16T10:07:33.914Z,58.00
2018-03-16T10:10:02.281Z,58.50
2018-03-16T10:12:30.632Z,56.70
2018-03-16T10:14:58.186Z,56.70
2018-03-16T10:17:25.943Z,57.10
2018-03-16T10:19:53.531Z,56.30
2018-03-16T10:22:21.295Z,57.10
2018-03-16T10:24:50.359Z,57.40
2018-03-16T10:27:17.989Z,57.30
2018-03-16T10:29:45.544Z,57.00
2018-03-16T10:32:13.131Z,56.20
2018-03-16T10:34:40.705Z,55.10
2018-03-16T10:37:08.400Z,54.80
2018-03-16T10:39:36.742Z,55.70
2018-03-16T10:42:04.343Z,55.20
2018-03-16T10:44:32.679Z,54.30
2018-03-16T10:47:00.253Z,54.30
2018-03-16T10:49:27.856Z,54.60
2018-03-16T10:51:55.419Z,54.50
2018-03-16T10:54:23.087Z,54.60
2018-03-16T10:56:50.679Z,55.20
2018-03-16T10:59:18.278Z,55.00
2018-03-16T11:01:52.233Z,54.30
2018-03-16T11:04:19.799Z,54.40
2018-03-16T11:06:47.354Z,53.30
2018-03-16T11:09:14.985Z,54.80
2018-03-16T11:11:43.304Z,52.60
2018-03-16T11:14:11.007Z,52.60
2018-03-16T11:16:39.335Z,50.00
2018-03-16T11:19:06.930Z,49.90
2018-03-16T11:21:35.363Z,46.40
2018-03-16T11:24:03.106Z,46.30
2018-03-16T11:26:30.667Z,46.80
2018-03-16T11:28:58.429Z,46.90
2018-03-16T11:31:26.042Z,47.50
2018-03-16T11:33:53.802Z,47.50
2018-03-16T11:36:21.347Z,47.20
2018-03-16T11:38:48.954Z,47.80
2018-03-16T11:41:16.524Z,48.20
2018-03-16T11:43:44.119Z,47.90
2018-03-16T11:46:11.675Z,47.80
2018-03-16T11:48:39.267Z,48.30
2018-03-16T11:51:07.651Z,46.10
2018-03-16T11:53:35.984Z,44.50
2018-03-16T11:56:03.607Z,44.40
2018-03-16T11:58:31.166Z,44.30
2018-03-16T12:00:58.807Z,45.00
2018-03-16T12:03:27.174Z,46.20
2018-03-16T12:05:55.626Z,46.50
2018-03-16T12:08:23.191Z,46.40
2018-03-16T12:10:50.792Z,48.70
2018-03-16T12:13:18.422Z,54.70
2018-03-16T12:15:46.093Z,54.60
2018-03-16T12:18:14.551Z,50.00
2018-03-16T12:20:43.639Z,48.00
2018-03-16T12:23:11.231Z,48.00
2018-03-16T12:25:39.618Z,51.80
2018-03-16T12:28:08.172Z,50.80
2018-03-16T12:30:35.756Z,50.80
2018-03-16T12:33:04.119Z,50.20
2018-03-16T12:35:32.424Z,47.90
2018-03-16T12:38:00.046Z,47.60
2018-03-16T12:40:27.787Z,47.70
2018-03-16T12:42:55.384Z,50.40
2018-03-16T12:45:23.764Z,53.00
2018-03-16T12:47:52.143Z,52.30
2018-03-16T12:50:20.450Z,52.80
2018-03-16T12:52:48.054Z,52.80
2018-03-16T12:55:15.663Z,51.60
2018-03-16T12:57:43.270Z,52.40
2018-03-16T13:00:10.851Z,52.40
2018-03-16T13:02:39.182Z,46.40
2018-03-16T13:05:06.837Z,46.30
2018-03-16T13:07:34.430Z,45.10
2018-03-16T13:10:02.078Z,43.90
2018-03-16T13:12:29.674Z,44.30
2018-03-16T13:14:58.022Z,44.90
2018-03-16T13:17:25.615Z,44.30
2018-03-16T13:19:53.187Z,43.10
2018-03-16T13:22:20.783Z,44.60
2018-03-16T13:24:48.346Z,44.50
2018-03-16T13:27:15.923Z,44.00
2018-03-16T13:29:43.535Z,44.00
2018-03-16T13:32:11.143Z,44.10
2018-03-16T13:34:38.690Z,44.70
2018-03-16T13:37:06.234Z,44.40
2018-03-16T13:39:33.875Z,43.90
2018-03-16T13:42:01.444Z,44.90
2018-03-16T13:44:29.046Z,42.20
2018-03-16T13:46:57.443Z,41.00
2018-03-16T13:49:25.026Z,40.50
2018-03-16T13:51:52.667Z,41.50
2018-03-16T13:54:20.242Z,43.40
2018-03-16T13:56:47.844Z,42.40
2018-03-16T13:59:15.410Z,40.20
2018-03-16T14:01:43.010Z,39.20
2018-03-16T14:04:10.573Z,38.30
2018-03-16T14:06:38.172Z,38.90
2018-03-16T14:09:05.734Z,39.20
2018-03-16T14:11:33.332Z,39.00
2018-03-16T14:14:00.979Z,39.10
2018-03-16T14:16:29.347Z,37.10
2018-03-16T14:18:57.708Z,37.20
2018-03-16T14:21:25.295Z,37.10
2018-03-16T14:23:53.628Z,37.10
2018-03-16T14:26:21.212Z,37.10
2018-03-16T14:28:48.771Z,37.50
2018-03-16T14:31:16.599Z,37.40
2018-03-16T14:33:44.156Z,37.90
2018-03-16T14:36:11.715Z,34.60
2018-03-16T14:38:39.298Z,35.30
2018-03-16T14:41:06.887Z,38.20
2018-03-16T14:43:35.221Z,41.20
2018-03-16T14:46:02.938Z,41.20
2018-03-16T14:48:30.534Z,40.50
2018-03-16T14:50:58.119Z,41.10
2018-03-16T14:53:25.715Z,42.30
2018-03-16T14:55:53.267Z,37.90
2018-03-16T14:58:20.864Z,38.40
2018-03-16T15:00:48.445Z,38.00
2018-03-16T15:03:16.042Z,40.00
2018-03-16T15:05:43.632Z,40.70
2018-03-16T15:08:11.355Z,38.50
2018-03-16T15:10:39.671Z,40.80
2018-03-16T15:13:07.376Z,40.70
2018-03-16T15:15:36.140Z,38.20
2018-03-16T15:18:03.702Z,38.40
2018-03-16T15:20:31.296Z,36.60
2018-03-16T15:22:59.630Z,39.50
2018-03-16T15:25:27.236Z,40.10
2018-03-16T15:27:55.699Z,40.20
2018-03-16T15:30:24.120Z,41.00
2018-03-16T15:32:51.684Z,40.40
2018-03-16T15:35:19.329Z,39.20
2018-03-16T15:37:47.054Z,39.50
2018-03-16T15:40:15.395Z,39.50
2018-03-16T15:42:43.080Z,39.50
2018-03-16T15:45:12.183Z,37.90
2018-03-16T15:47:39.777Z,37.80
2018-03-16T15:50:07.347Z,38.20
2018-03-16T15:52:34.944Z,37.80
2018-03-16T15:55:02.627Z,38.30
2018-03-16T15:57:31.091Z,38.80
2018-03-16T15:59:58.833Z,38.70
2018-03-16T16:02:26.424Z,39.30
2018-03-16T16:04:53.995Z,38.70
2018-03-16T16:07:22.366Z,39.40
2018-03-16T16:09:50.756Z,39.80
2018-03-16T16:12:19.104Z,40.50
2018-03-16T16:14:46.699Z,40.50
2018-03-16T16:17:14.260Z,41.10
2018-03-16T16:19:41.935Z,41.60
2018-03-16T16:22:09.594Z,41.90
2018-03-16T16:24:37.179Z,41.60
2018-03-16T16:27:05.548Z,41.50
2018-03-16T16:29:33.131Z,41.40
2018-03-16T16:32:00.738Z,42.20
2018-03-16T16:34:28.599Z,40.60
2018-03-16T16:36:56.123Z,39.40
2018-03-16T16:39:23.818Z,39.80
2018-03-16T16:41:51.383Z,39.60
2018-03-16T16:44:19.067Z,40.90
2018-03-16T16:46:46.667Z,41.80
2018-03-16T16:49:15.752Z,41.70
2018-03-16T16:51:43.343Z,41.70
2018-03-16T16:54:10.944Z,42.90
2018-03-16T16:56:38.643Z,42.60
2018-03-16T16:59:06.218Z,43.40
2018-03-16T17:01:33.815Z,43.30
2018-03-16T17:04:01.393Z,43.10
2018-03-16T17:06:28.980Z,42.80
2018-03-16T17:08:57.400Z,44.00
2018-03-16T17:11:25.025Z,44.00
2018-03-16T17:13:53.347Z,45.10
2018-03-16T17:16:20.911Z,45.10
2018-03-16T17:18:48.490Z,44.10
2018-03-16T17:21:16.043Z,44.60
2018-03-16T17:23:43.652Z,44.60
2018-03-16T17:26:11.226Z,44.30
2018-03-16T17:28:38.833Z,44.60
2018-03-16T17:31:06.389Z,44.40
2018-03-16T17:33:35.659Z,45.00
2018-03-16T17:36:03.323Z,45.00
2018-03-16T17:38:30.988Z,45.30
2018-03-16T17:40:58.567Z,45.20
2018-03-16T17:43:26.225Z,45.50
2018-03-16T17:45:53.782Z,46.00
2018-03-16T17:48:21.356Z,46.20
2018-03-16T17:50:48.947Z,47.00
2018-03-16T17:53:16.508Z,47.50
2018-03-16T17:55:44.172Z,47.60
2018-03-16T17:58:11.751Z,47.40
2018-03-16T18:00:39.347Z,48.20
2018-03-16T18:03:06.925Z,48.20
2018-03-16T18:05:35.287Z,48.30
2018-03-16T18:08:03.650Z,48.70
2018-03-16T18:10:31.346Z,48.60
2018-03-16T18:12:59.697Z,48.80
2018-03-16T18:15:28.023Z,49.20
2018-03-16T18:17:55.885Z,49.20
2018-03-16T18:20:23.464Z,48.50
2018-03-16T18:22:51.071Z,49.50
2018-03-16T18:25:19.400Z,48.40
2018-03-16T18:27:47.150Z,48.40
2018-03-16T18:30:14.736Z,48.60
2018-03-16T18:32:42.355Z,48.80
2018-03-16T18:35:09.914Z,48.90
2018-03-16T18:37:37.517Z,49.40
2018-03-16T18:40:05.864Z,49.80
2018-03-16T18:42:33.553Z,49.80
2018-03-16T18:45:01.243Z,49.60
2018-03-16T18:47:29.764Z,49.90
2018-03-16T18:49:57.337Z,49.90
2018-03-16T18:52:24.924Z,49.80
2018-03-16T18:54:52.576Z,50.10
2018-03-16T18:57:20.132Z,50.50
2018-03-16T18:59:47.749Z,51.80
2018-03-16T19:02:15.296Z,52.20
2018-03-16T19:04:42.881Z,52.00
2018-03-16T19:07:10.635Z,52.00
2018-03-16T19:09:38.211Z,52.20
2018-03-16T19:12:05.815Z,52.20
2018-03-16T19:14:34.153Z,52.60
2018-03-16T19:17:01.759Z,52.50
2018-03-16T19:19:30.099Z,53.00
2018-03-16T19:21:57.773Z,52.80
2018-03-16T19:24:25.332Z,52.70
2018-03-16T19:26:52.933Z,52.50
2018-03-16T19:29:20.519Z,52.20
2018-03-16T19:31:48.104Z,52.40
2018-03-16T19:34:15.691Z,52.30
2018-03-16T19:36:43.303Z,52.40
2018-03-16T19:39:10.948Z,52.50
2018-03-16T19:41:38.541Z,52.70
2018-03-16T19:44:06.158Z,52.90
2018-03-16T19:46:33.744Z,53.10
2018-03-16T19:49:01.339Z,53.20
2018-03-16T19:51:29.675Z,53.50
2018-03-16T19:53:57.295Z,53.40
2018-03-16T19:56:24.856Z,53.50
2018-03-16T19:58:52.460Z,53.60
2018-03-16T20:01:20.052Z,53.70
2018-03-16T20:03:48.588Z,53.80
2018-03-16T20:06:16.223Z,53.80
2018-03-16T20:08:43.799Z,53.80
2018-03-16T20:11:11.399Z,54.00
2018-03-16T20:13:39.740Z,54.20
2018-03-16T20:16:07.348Z,54.30
2018-03-16T20:18:35.692Z,54.30
2018-03-16T20:21:03.292Z,54.30
2018-03-16T20:23:30.947Z,54.10
2018-03-16T20:25:58.523Z,54.20
2018-03-16T20:28:26.140Z,54.20
2018-03-16T20:30:53.731Z,54.30
2018-03-16T20:33:21.337Z,54.30
2018-03-16T20:35:48.919Z,54.50
2018-03-16T20:38:16.555Z,54.80
2018-03-16T20:40:44.161Z,56.30
2018-03-16T20:43:12.507Z,56.70
2018-03-16T20:45:40.100Z,56.60
2018-03-16T20:48:07.846Z,57.10
2018-03-16T20:50:36.365Z,57.70
2018-03-16T20:53:04.192Z,57.60
2018-03-16T20:55:32.706Z,58.10
2018-03-16T20:58:00.364Z,58.10
2018-03-16T21:00:27.946Z,58.70
2018-03-16T21:02:55.572Z,57.90
2018-03-16T21:05:23.187Z,57.90
2018-03-16T21:07:50.757Z,57.70
2018-03-16T21:10:19.284Z,59.40
2018-03-16T21:12:46.875Z,59.00
2018-03-16T21:15:14.464Z,59.50
2018-03-16T21:17:42.829Z,59.50
2018-03-16T21:20:10.407Z,59.50
2018-03-16T21:22:38.793Z,59.80
2018-03-16T21:25:07.123Z,60.70
2018-03-16T21:27:34.727Z,60.70
2018-03-16T21:30:03.095Z,60.20
2018-03-16T21:32:31.447Z,60.70
2018-03-16T21:34:59.017Z,60.70
2018-03-16T21:37:26.615Z,61.10
2018-03-16T21:39:54.174Z,61.40
2018-03-16T21:42:21.779Z,62.00
2018-03-16T21:44:49.351Z,62.10
2018-03-16T21:47:17.132Z,61.40
2018-03-16T21:49:45.481Z,62.30
2018-03-16T21:52:13.060Z,62.90
2018-03-16T21:54:41.448Z,62.70
2018-03-16T21:57:09.830Z,61.10
2018-03-16T21:59:38.265Z,61.00
2018-03-16T22:02:05.914Z,61.00
2018-03-16T22:04:33.639Z,61.10
2018-03-16T22:07:01.312Z,62.00
2018-03-16T22:09:28.908Z,62.70
2018-03-16T22:11:56.520Z,63.20
2018-03-16T22:14:24.124Z,64.10
2018-03-16T22:16:51.713Z,64.00
2018-03-16T22:19:20.212Z,64.50
2018-03-16T22:21:47.828Z,64.50
2018-03-16T22:24:15.390Z,64.60
2018-03-16T22:26:42.986Z,64.90
2018-03-16T22:29:10.551Z,64.90
2018-03-16T22:31:38.193Z,64.60
2018-03-16T22:34:06.534Z,65.40
2018-03-16T22:36:34.204Z,65.40
2018-03-16T22:39:01.781Z,65.40
2018-03-16T22:41:30.251Z,64.20
2018-03-16T22:43:57.835Z,64.50
2018-03-16T22:46:26.281Z,64.10
2018-03-16T22:48:53.880Z,64.10
2018-03-16T22:51:21.632Z,64.20
2018-03-16T22:53:50.067Z,64.60
2018-03-16T22:56:17.630Z,64.50
2018-03-16T22:58:45.214Z,64.30
2018-03-16T23:01:12.785Z,65.00
2018-03-16T23:03:41.159Z,66.10
2018-03-16T23:06:09.488Z,66.70
2018-03-16T23:08:37.063Z,66.60
2018-03-16T23:11:04.772Z,67.00
2018-03-16T23:13:32.338Z,67.30
2018-03-16T23:15:59.930Z,67.30
2018-03-16T23:18:27.561Z,67.20
2018-03-16T23:20:55.344Z,67.20
2018-03-16T23:23:22.943Z,67.60
2018-03-16T23:25:50.545Z,67.50
2018-03-16T23:28:18.113Z,67.60
2018-03-16T23:30:45.732Z,67.60
2018-03-16T23:33:14.096Z,67.20
2018-03-16T23:35:42.485Z,67.20
2018-03-16T23:38:10.832Z,67.40
2018-03-16T23:40:38.422Z,67.30
2018-03-16T23:43:06.792Z,67.50
2018-03-16T23:45:35.187Z,68.10
2018-03-16T23:48:02.903Z,68.40
2018-03-16T23:50:30.474Z,68.30
2018-03-16T23:52:58.031Z,68.80
2018-03-16T23:55:26.443Z,68.00
2018-03-16T23:57:54.018Z,67.90
